createdAt,value
2023-05-08T00:01:12.799Z,20.79
2023-05-08T00:03:40.052Z,20.84
2023-05-08T00:06:07.294Z,20.87
2023-05-08T00:08:34.342Z,20.82
2023-05-08T00:11:01.318Z,20.80
2023-05-08T00:13:28.414Z,20.85
2023-05-08T00:15:55.451Z,20.84
2023-05-08T00:18:22.506Z,20.86
2023-05-08T00:20:49.470Z,20.88
2023-05-08T00:23:16.418Z,20.87
2023-05-08T00:25:43.444Z,20.85
2023-05-08T00:28:10.564Z,20.84
2023-05-08T00:30:38.362Z,20.80
2023-05-08T00:33:05.469Z,20.81
2023-05-08T00:35:32.461Z,20.81
2023-05-08T00:37:59.867Z,20.80
2023-05-08T00:40:27.084Z,20.75
2023-05-08T00:42:54.592Z,20.75
2023-05-08T00:45:21.499Z,20.71
2023-05-08T00:47:49.945Z,20.68
2023-05-08T00:50:17.999Z,20.62
2023-05-08T00:52:45.129Z,20.59
2023-05-08T00:55:12.857Z,20.57
2023-05-08T00:57:40.358Z,20.52
2023-05-08T01:00:08.485Z,20.47
2023-05-08T01:02:36.347Z,20.50
2023-05-08T01:05:04.126Z,20.48
2023-05-08T01:07:31.236Z,20.47
2023-05-08T01:09:58.290Z,20.45
2023-05-08T01:12:40.397Z,20.43
2023-05-08T01:15:16.975Z,20.39
2023-05-08T01:18:11.031Z,20.40
2023-05-08T01:20:57.263Z,20.32
2023-05-08T01:23:48.606Z,20.33
2023-05-08T01:26:37.061Z,20.28
2023-05-08T01:29:25.703Z,20.25
2023-05-08T01:32:23.577Z,20.21
2023-05-08T01:35:10.770Z,20.18
2023-05-08T01:37:45.153Z,20.15
2023-05-08T01:40:28.561Z,20.17
2023-05-08T01:43:11.005Z,20.14
2023-05-08T01:45:45.237Z,20.18
2023-05-08T01:48:21.454Z,20.14
2023-05-08T01:50:55.816Z,20.15
2023-05-08T01:53:56.106Z,20.12
2023-05-08T01:56:25.452Z,20.06
2023-05-08T01:58:55.567Z,20.07
2023-05-08T02:01:26.076Z,20.14
2023-05-08T02:03:57.575Z,20.15
2023-05-08T02:06:27.011Z,20.13
2023-05-08T02:08:56.301Z,20.17
2023-05-08T02:11:24.914Z,20.17
2023-05-08T02:13:53.019Z,20.22
2023-05-08T02:16:22.210Z,20.15
2023-05-08T02:18:53.207Z,20.19
2023-05-08T02:21:22.257Z,20.21
2023-05-08T02:23:50.710Z,20.27
2023-05-08T02:26:19.027Z,20.28
2023-05-08T02:28:46.822Z,20.29
2023-05-08T02:31:14.455Z,20.26
2023-05-08T02:33:44.181Z,20.30
2023-05-08T02:36:13.917Z,20.24
2023-05-08T02:38:44.204Z,20.24
2023-05-08T02:41:12.475Z,20.27
2023-05-08T02:43:40.259Z,20.25
2023-05-08T02:46:16.292Z,20.30
2023-05-08T02:49:03.578Z,20.27
2023-05-08T02:51:39.784Z,20.28
2023-05-08T02:54:14.697Z,20.25
2023-05-08T02:56:50.416Z,20.27
2023-05-08T02:59:22.339Z,20.30
2023-05-08T03:02:04.461Z,20.28
2023-05-08T03:04:36.731Z,20.31
2023-05-08T03:07:05.536Z,20.36
2023-05-08T03:09:40.568Z,20.39
2023-05-08T03:12:17.347Z,20.40
2023-05-08T03:15:00.206Z,20.41
2023-05-08T03:17:31.929Z,20.42
2023-05-08T03:20:06.135Z,20.43
2023-05-08T03:22:36.102Z,20.39
2023-05-08T03:25:05.633Z,20.42
2023-05-08T03:27:36.048Z,20.43
2023-05-08T03:30:04.982Z,20.45
2023-05-08T03:32:35.651Z,20.45
2023-05-08T03:35:05.591Z,20.40
2023-05-08T03:37:32.736Z,20.43
2023-05-08T03:40:00.378Z,20.43
2023-05-08T03:42:28.576Z,20.43
2023-05-08T03:44:56.406Z,20.43
2023-05-08T03:47:26.370Z,20.43
2023-05-08T03:49:54.351Z,20.44
2023-05-08T03:52:21.360Z,20.37
2023-05-08T03:54:48.720Z,20.40
2023-05-08T03:57:15.880Z,20.36
2023-05-08T03:59:52.343Z,20.37
2023-05-08T04:02:47.386Z,20.32
2023-05-08T04:05:34.588Z,20.30
2023-05-08T04:08:16.537Z,20.30
2023-05-08T04:10:51.380Z,20.31
2023-05-08T04:13:31.349Z,20.33
2023-05-08T04:16:07.682Z,20.31
2023-05-08T04:18:38.868Z,20.27
2023-05-08T04:21:11.579Z,20.28
2023-05-08T04:23:42.176Z,20.28
2023-05-08T04:26:13.179Z,20.34
2023-05-08T04:28:42.752Z,20.34
2023-05-08T04:31:10.655Z,20.35
2023-05-08T04:33:38.744Z,20.33
2023-05-08T04:36:07.018Z,20.36
2023-05-08T04:38:37.868Z,20.33
2023-05-08T04:41:06.179Z,20.36
2023-05-08T04:43:33.562Z,20.35
2023-05-08T04:46:00.718Z,20.35
2023-05-08T04:48:28.216Z,20.35
2023-05-08T04:50:55.180Z,20.35
2023-05-08T04:53:22.372Z,20.36
2023-05-08T04:55:49.445Z,20.35
2023-05-08T04:58:16.356Z,20.36
2023-05-08T05:00:43.290Z,20.35
2023-05-08T05:03:10.804Z,20.34
2023-05-08T05:05:39.023Z,20.33
2023-05-08T05:08:07.066Z,20.37
2023-05-08T05:10:34.114Z,20.37
2023-05-08T05:13:01.105Z,20.37
2023-05-08T05:15:28.310Z,20.38
2023-05-08T05:17:55.583Z,20.41
2023-05-08T05:20:22.599Z,20.40
2023-05-08T05:22:49.631Z,20.41
2023-05-08T05:25:16.938Z,20.41
2023-05-08T05:27:45.049Z,20.41
2023-05-08T05:30:12.661Z,20.47
2023-05-08T05:32:40.010Z,20.52
2023-05-08T05:35:09.262Z,20.43
2023-05-08T05:37:36.484Z,20.48
2023-05-08T05:40:03.925Z,20.49
2023-05-08T05:42:32.932Z,20.51
2023-05-08T05:45:02.039Z,20.52
2023-05-08T05:47:30.495Z,20.53
2023-05-08T05:49:57.973Z,20.56
2023-05-08T05:52:25.754Z,20.53
2023-05-08T05:54:53.290Z,20.51
2023-05-08T05:57:20.717Z,20.55
2023-05-08T05:59:47.691Z,20.57
2023-05-08T06:02:18.924Z,20.59
2023-05-08T06:04:46.858Z,20.65
2023-05-08T06:07:14.866Z,20.69
2023-05-08T06:09:42.226Z,20.71
2023-05-08T06:12:10.496Z,20.76
2023-05-08T06:14:37.638Z,20.81
2023-05-08T06:17:05.327Z,20.88
2023-05-08T06:19:32.455Z,21.00
2023-05-08T06:21:59.381Z,21.08
2023-05-08T06:24:26.374Z,21.10
2023-05-08T06:26:53.403Z,21.15
2023-05-08T06:29:20.445Z,21.19
2023-05-08T06:31:47.400Z,21.22
2023-05-08T06:34:14.425Z,21.33
2023-05-08T06:36:41.602Z,21.44
2023-05-08T06:39:08.608Z,21.69
2023-05-08T06:41:35.554Z,21.86
2023-05-08T06:44:02.475Z,22.07
2023-05-08T06:46:30.132Z,22.14
2023-05-08T06:48:57.223Z,22.22
2023-05-08T06:51:24.185Z,22.27
2023-05-08T06:53:51.134Z,22.26
2023-05-08T06:56:18.061Z,22.26
2023-05-08T06:58:50.783Z,22.31
2023-05-08T07:01:28.078Z,22.38
2023-05-08T07:03:55.037Z,22.66
2023-05-08T07:06:22.249Z,23.16
2023-05-08T07:08:49.754Z,23.88
2023-05-08T07:11:16.790Z,24.82
2023-05-08T07:13:43.768Z,25.66
2023-05-08T07:16:11.427Z,26.53
2023-05-08T07:18:38.579Z,27.38
2023-05-08T07:21:05.775Z,28.21
2023-05-08T07:23:32.845Z,29.00
2023-05-08T07:25:59.951Z,29.67
2023-05-08T07:28:26.854Z,30.34
2023-05-08T07:30:53.839Z,30.86
2023-05-08T07:33:20.699Z,31.33
2023-05-08T07:35:47.730Z,31.84
2023-05-08T07:38:14.658Z,32.33
2023-05-08T07:40:41.740Z,32.70
2023-05-08T07:43:08.863Z,33.06
2023-05-08T07:45:36.123Z,33.27
2023-05-08T07:48:03.184Z,33.55
2023-05-08T07:50:30.249Z,33.77
2023-05-08T07:52:57.325Z,34.02
2023-05-08T07:55:24.312Z,34.41
2023-05-08T07:57:51.194Z,34.71
2023-05-08T08:00:18.377Z,34.99
2023-05-08T08:02:46.035Z,35.21
2023-05-08T08:05:13.510Z,35.21
2023-05-08T08:07:40.651Z,35.52
2023-05-08T08:10:08.494Z,35.73
2023-05-08T08:12:35.421Z,35.95
2023-05-08T08:15:02.403Z,35.92
2023-05-08T08:17:29.463Z,36.09
2023-05-08T08:19:57.433Z,36.06
2023-05-08T08:22:26.259Z,35.09
2023-05-08T08:24:56.041Z,34.38
2023-05-08T08:27:23.597Z,34.10
2023-05-08T08:29:52.517Z,33.80
2023-05-08T08:32:25.731Z,33.56
2023-05-08T08:34:52.776Z,33.21
2023-05-08T08:37:19.722Z,32.41
2023-05-08T08:39:48.550Z,30.91
2023-05-08T08:42:15.788Z,28.98
2023-05-08T08:44:43.243Z,27.90
2023-05-08T08:47:16.960Z,27.49
2023-05-08T08:49:49.014Z,26.85
2023-05-08T08:52:36.544Z,26.25
2023-05-08T08:55:12.457Z,25.84
2023-05-08T08:57:51.988Z,25.12
2023-05-08T09:00:21.135Z,24.63
2023-05-08T09:02:51.634Z,24.23
2023-05-08T09:05:19.178Z,24.20
2023-05-08T09:07:46.581Z,24.25
2023-05-08T09:10:17.255Z,23.98
2023-05-08T09:12:45.314Z,23.82
2023-05-08T09:15:12.804Z,23.85
2023-05-08T09:17:40.670Z,23.79
2023-05-08T09:20:09.340Z,23.71
2023-05-08T09:22:37.544Z,23.70
2023-05-08T09:25:05.024Z,23.57
2023-05-08T09:27:33.104Z,23.35
2023-05-08T09:30:03.066Z,23.09
2023-05-08T09:32:31.707Z,22.84
2023-05-08T09:34:59.595Z,22.87
2023-05-08T09:37:27.544Z,22.90
2023-05-08T09:39:55.411Z,23.05
2023-05-08T09:42:37.715Z,23.07
2023-05-08T09:45:05.226Z,22.99
2023-05-08T09:47:34.852Z,23.09
2023-05-08T09:50:05.255Z,23.16
2023-05-08T09:52:33.790Z,23.19
2023-05-08T09:55:09.918Z,23.16
2023-05-08T09:57:39.752Z,22.97
2023-05-08T10:00:10.515Z,22.89
2023-05-08T10:02:54.576Z,22.59
2023-05-08T10:05:33.066Z,22.67
2023-05-08T10:08:20.896Z,22.94
2023-05-08T10:10:48.629Z,22.92
2023-05-08T10:13:15.760Z,22.91
2023-05-08T10:15:44.087Z,22.75
2023-05-08T10:18:12.384Z,22.63
2023-05-08T10:20:41.315Z,22.55
2023-05-08T10:23:13.449Z,22.54
2023-05-08T10:25:45.897Z,22.26
2023-05-08T10:28:43.494Z,22.33
2023-05-08T10:31:17.622Z,22.31
2023-05-08T10:33:46.881Z,22.55
2023-05-08T10:36:15.165Z,22.70
2023-05-08T10:38:43.462Z,22.84
2023-05-08T10:41:13.985Z,22.90
2023-05-08T10:43:43.795Z,23.06
2023-05-08T10:46:29.525Z,23.19
2023-05-08T10:49:15.379Z,23.31
2023-05-08T10:51:49.881Z,23.20
2023-05-08T10:54:27.014Z,23.28
2023-05-08T10:57:08.578Z,23.32
2023-05-08T10:59:39.396Z,23.44
2023-05-08T11:02:08.259Z,23.51
2023-05-08T11:04:35.683Z,23.46
2023-05-08T11:07:04.509Z,23.49
2023-05-08T11:09:47.354Z,23.45
2023-05-08T11:12:28.063Z,23.43
2023-05-08T11:15:06.890Z,23.45
2023-05-08T11:17:34.671Z,23.34
2023-05-08T11:20:04.293Z,23.15
2023-05-08T11:22:33.407Z,23.06
2023-05-08T11:25:09.361Z,23.16
2023-05-08T11:27:51.743Z,23.09
2023-05-08T11:30:23.250Z,22.87
2023-05-08T11:33:06.383Z,22.86
2023-05-08T11:35:46.045Z,22.98
2023-05-08T11:38:26.789Z,22.95
2023-05-08T11:41:25.778Z,22.75
2023-05-08T11:44:08.229Z,22.77
2023-05-08T11:46:39.414Z,22.85
2023-05-08T11:49:12.100Z,22.83
2023-05-08T11:51:39.450Z,22.89
2023-05-08T11:54:06.808Z,22.76
2023-05-08T11:56:33.978Z,22.83
2023-05-08T11:59:09.611Z,22.96
2023-05-08T12:01:53.510Z,22.96
2023-05-08T12:04:30.858Z,22.83
2023-05-08T12:06:59.792Z,22.78
2023-05-08T12:09:27.244Z,22.71
2023-05-08T12:11:58.154Z,22.64
2023-05-08T12:14:25.433Z,22.73
2023-05-08T12:16:54.744Z,22.78
2023-05-08T12:19:24.755Z,22.88
2023-05-08T12:21:51.845Z,22.84
2023-05-08T12:24:23.556Z,22.83
2023-05-08T12:27:03.453Z,22.83
2023-05-08T12:29:30.795Z,22.99
2023-05-08T12:31:58.614Z,22.97
2023-05-08T12:34:28.622Z,22.97
2023-05-08T12:37:03.656Z,23.09
2023-05-08T12:39:35.767Z,23.07
2023-05-08T12:42:06.597Z,22.96
2023-05-08T12:44:33.622Z,22.85
2023-05-08T12:47:05.288Z,22.80
2023-05-08T12:49:33.202Z,22.79
2023-05-08T12:52:09.908Z,22.81
2023-05-08T12:54:39.005Z,22.86
2023-05-08T12:57:21.543Z,22.96
2023-05-08T12:59:49.119Z,22.85
2023-05-08T13:02:24.262Z,22.91
2023-05-08T13:04:58.136Z,22.89
2023-05-08T13:07:33.155Z,22.94
2023-05-08T13:10:04.559Z,22.88
2023-05-08T13:12:32.367Z,22.84
2023-05-08T13:14:59.456Z,22.83
2023-05-08T13:17:27.074Z,22.78
2023-05-08T13:19:54.442Z,22.87
2023-05-08T13:22:23.284Z,22.86
2023-05-08T13:24:53.836Z,22.85
2023-05-08T13:27:21.169Z,22.96
2023-05-08T13:29:48.768Z,23.02
2023-05-08T13:32:16.041Z,23.10
2023-05-08T13:34:49.804Z,23.26
2023-05-08T13:37:20.659Z,23.21
2023-05-08T13:39:47.832Z,23.11
2023-05-08T13:42:14.800Z,23.03
2023-05-08T13:44:42.137Z,23.13
2023-05-08T13:47:10.178Z,22.95
2023-05-08T13:49:37.094Z,22.99
2023-05-08T13:52:08.044Z,23.08
2023-05-08T13:54:35.261Z,22.97
2023-05-08T13:57:03.257Z,23.10
2023-05-08T13:59:31.377Z,23.11
2023-05-08T14:01:58.762Z,23.18
2023-05-08T14:04:25.889Z,23.15
2023-05-08T14:06:53.318Z,23.19
2023-05-08T14:09:20.545Z,23.17
2023-05-08T14:11:47.440Z,23.10
2023-05-08T14:14:14.493Z,23.08
2023-05-08T14:16:42.094Z,23.10
2023-05-08T14:19:10.100Z,23.18
2023-05-08T14:21:37.480Z,23.27
2023-05-08T14:24:04.799Z,23.37
2023-05-08T14:26:31.711Z,23.48
2023-05-08T14:28:58.871Z,23.52
2023-05-08T14:31:26.240Z,23.55
2023-05-08T14:33:53.713Z,23.56
2023-05-08T14:36:20.759Z,23.53
2023-05-08T14:38:48.026Z,23.49
2023-05-08T14:41:14.965Z,23.50
2023-05-08T14:43:43.155Z,23.32
2023-05-08T14:46:10.436Z,23.41
2023-05-08T14:48:37.448Z,23.41
2023-05-08T14:51:05.043Z,23.26
2023-05-08T14:53:32.548Z,23.31
2023-05-08T14:56:02.418Z,23.27
2023-05-08T14:58:29.538Z,23.26
2023-05-08T15:00:56.504Z,23.29
2023-05-08T15:03:24.003Z,23.35
2023-05-08T15:05:51.019Z,23.40
2023-05-08T15:08:18.339Z,23.39
2023-05-08T15:10:45.339Z,23.50
2023-05-08T15:13:12.448Z,23.57
2023-05-08T15:15:39.452Z,23.69
2023-05-08T15:18:09.474Z,23.71
2023-05-08T15:20:39.495Z,23.75
2023-05-08T15:23:06.707Z,23.70
2023-05-08T15:25:33.768Z,23.76
2023-05-08T15:28:01.257Z,23.73
2023-05-08T15:30:28.337Z,23.79
2023-05-08T15:32:55.373Z,23.83
2023-05-08T15:35:22.280Z,23.44
2023-05-08T15:37:49.252Z,23.12
2023-05-08T15:40:16.239Z,22.93
2023-05-08T15:42:43.158Z,22.79
2023-05-08T15:45:10.593Z,22.77
2023-05-08T15:47:37.573Z,22.89
2023-05-08T15:50:04.683Z,22.95
2023-05-08T15:52:31.656Z,22.98
2023-05-08T15:54:58.581Z,22.96
2023-05-08T15:57:27.171Z,22.80
2023-05-08T15:59:54.209Z,22.71
2023-05-08T16:02:21.189Z,22.57
2023-05-08T16:04:48.187Z,22.53
2023-05-08T16:07:15.174Z,22.50
2023-05-08T16:09:42.352Z,22.44
2023-05-08T16:12:09.539Z,22.47
2023-05-08T16:14:36.694Z,22.45
2023-05-08T16:17:04.103Z,22.48
2023-05-08T16:19:31.114Z,22.48
2023-05-08T16:21:58.270Z,22.47
2023-05-08T16:24:25.229Z,22.52
2023-05-08T16:26:52.195Z,22.58
2023-05-08T16:29:19.144Z,22.64
2023-05-08T16:31:46.328Z,22.69
2023-05-08T16:34:13.426Z,22.61
2023-05-08T16:36:40.652Z,22.47
2023-05-08T16:39:08.742Z,22.42
2023-05-08T16:41:35.877Z,22.27
2023-05-08T16:44:02.859Z,22.17
2023-05-08T16:46:30.652Z,21.96
2023-05-08T16:48:57.931Z,22.05
2023-05-08T16:51:25.258Z,22.07
2023-05-08T16:53:52.177Z,22.17
2023-05-08T16:56:19.308Z,22.28
2023-05-08T16:58:46.346Z,22.36
2023-05-08T17:01:14.302Z,22.43
2023-05-08T17:03:43.876Z,22.50
2023-05-08T17:06:16.608Z,22.63
2023-05-08T17:08:46.994Z,22.41
2023-05-08T17:11:15.931Z,22.39
2023-05-08T17:13:47.172Z,22.41
2023-05-08T17:16:14.701Z,22.49
2023-05-08T17:18:41.981Z,22.59
2023-05-08T17:21:08.927Z,22.68
2023-05-08T17:23:36.189Z,22.71
2023-05-08T17:26:03.750Z,22.72
2023-05-08T17:28:31.313Z,22.70
2023-05-08T17:31:01.261Z,22.73
2023-05-08T17:33:28.778Z,22.56
2023-05-08T17:35:58.859Z,22.56
2023-05-08T17:38:25.916Z,22.56
2023-05-08T17:40:52.880Z,22.51
2023-05-08T17:43:20.798Z,22.49
2023-05-08T17:45:48.473Z,22.51
2023-05-08T17:48:17.066Z,22.48
2023-05-08T17:50:46.945Z,22.50
2023-05-08T17:53:13.980Z,22.49
2023-05-08T17:55:42.445Z,22.46
2023-05-08T17:58:09.490Z,22.32
2023-05-08T18:00:37.819Z,22.29
2023-05-08T18:03:05.269Z,22.26
2023-05-08T18:05:32.439Z,22.35
2023-05-08T18:08:00.274Z,22.42
2023-05-08T18:10:34.779Z,22.35
2023-05-08T18:13:01.997Z,22.25
2023-05-08T18:15:29.202Z,22.14
2023-05-08T18:17:57.084Z,22.20
2023-05-08T18:20:26.877Z,22.20
2023-05-08T18:22:53.983Z,22.17
2023-05-08T18:25:20.981Z,22.19
2023-05-08T18:27:50.111Z,22.28
2023-05-08T18:30:17.257Z,22.11
2023-05-08T18:32:44.374Z,22.07
2023-05-08T18:35:14.405Z,21.98
2023-05-08T18:37:41.537Z,21.92
2023-05-08T18:40:09.114Z,21.96
2023-05-08T18:42:38.598Z,21.89
2023-05-08T18:45:09.196Z,21.88
2023-05-08T18:47:36.206Z,21.82
2023-05-08T18:50:03.650Z,21.73
2023-05-08T18:52:30.631Z,21.69
2023-05-08T18:54:57.604Z,21.64
2023-05-08T18:57:27.223Z,21.68
2023-05-08T18:59:54.185Z,21.74
2023-05-08T19:02:21.113Z,21.81
2023-05-08T19:04:48.170Z,21.71
2023-05-08T19:07:15.278Z,21.67
2023-05-08T19:09:42.173Z,21.63
2023-05-08T19:12:09.164Z,21.69
2023-05-08T19:14:36.183Z,21.67
2023-05-08T19:17:03.231Z,21.73
2023-05-08T19:19:30.854Z,21.75
2023-05-08T19:21:57.996Z,21.64
2023-05-08T19:24:29.814Z,21.53
2023-05-08T19:26:57.477Z,21.63
2023-05-08T19:29:24.699Z,21.66
2023-05-08T19:31:52.054Z,21.73
2023-05-08T19:34:19.171Z,21.82
2023-05-08T19:36:46.380Z,21.69
2023-05-08T19:39:13.993Z,21.60
2023-05-08T19:41:40.984Z,21.51
2023-05-08T19:44:07.956Z,21.46
2023-05-08T19:46:35.243Z,21.50
2023-05-08T19:49:02.712Z,21.65
2023-05-08T19:51:32.747Z,21.79
2023-05-08T19:54:02.630Z,21.79
2023-05-08T19:56:29.589Z,21.75
2023-05-08T19:58:56.584Z,21.66
2023-05-08T20:01:23.534Z,21.56
2023-05-08T20:03:51.081Z,21.45
2023-05-08T20:06:18.274Z,21.44
2023-05-08T20:08:45.391Z,21.43
2023-05-08T20:11:12.420Z,21.50
2023-05-08T20:13:39.675Z,21.51
2023-05-08T20:16:07.112Z,21.61
2023-05-08T20:18:35.725Z,21.66
2023-05-08T20:21:02.903Z,21.74
2023-05-08T20:23:30.053Z,21.77
2023-05-08T20:25:57.079Z,21.66
2023-05-08T20:28:26.271Z,21.56
2023-05-08T20:30:53.300Z,21.63
2023-05-08T20:33:20.830Z,21.64
2023-05-08T20:35:47.943Z,21.68
2023-05-08T20:38:16.129Z,21.64
2023-05-08T20:40:43.263Z,21.64
2023-05-08T20:43:10.759Z,21.67
2023-05-08T20:45:38.382Z,21.69
2023-05-08T20:48:06.062Z,21.70
2023-05-08T20:50:33.230Z,21.78
2023-05-08T20:53:00.154Z,21.82
2023-05-08T20:55:27.141Z,21.79
2023-05-08T20:57:54.637Z,21.82
2023-05-08T21:00:21.634Z,21.92
2023-05-08T21:02:48.562Z,21.97
2023-05-08T21:05:16.256Z,22.03
2023-05-08T21:07:43.577Z,22.07
2023-05-08T21:10:10.877Z,22.08
2023-05-08T21:12:38.927Z,22.02
2023-05-08T21:15:06.924Z,22.10
2023-05-08T21:17:33.956Z,22.12
2023-05-08T21:20:00.977Z,22.15
2023-05-08T21:22:27.898Z,22.16
2023-05-08T21:24:54.836Z,22.18
2023-05-08T21:27:21.832Z,22.18
2023-05-08T21:29:48.870Z,22.21
2023-05-08T21:32:15.824Z,22.21
2023-05-08T21:34:42.752Z,22.22
2023-05-08T21:37:11.142Z,22.22
2023-05-08T21:39:38.250Z,22.21
2023-05-08T21:42:05.276Z,22.18
2023-05-08T21:44:32.192Z,22.20
2023-05-08T21:46:59.163Z,22.16
2023-05-08T21:49:26.167Z,22.17
2023-05-08T21:51:53.367Z,22.16
2023-05-08T21:54:23.229Z,22.13
2023-05-08T21:56:50.804Z,22.10
2023-05-08T21:59:17.750Z,22.07
2023-05-08T22:01:44.698Z,22.02
2023-05-08T22:04:11.662Z,21.97
2023-05-08T22:06:38.687Z,21.94
2023-05-08T22:09:05.785Z,21.91
2023-05-08T22:11:33.187Z,21.89
2023-05-08T22:14:00.128Z,21.84
2023-05-08T22:16:27.173Z,21.86
2023-05-08T22:18:54.109Z,21.83
2023-05-08T22:21:21.020Z,21.80
2023-05-08T22:23:48.027Z,21.79
2023-05-08T22:26:14.956Z,21.75
2023-05-08T22:28:41.890Z,21.77
2023-05-08T22:31:08.788Z,21.74
2023-05-08T22:33:35.782Z,21.71
2023-05-08T22:36:02.747Z,21.63
2023-05-08T22:38:29.676Z,21.62
2023-05-08T22:40:57.595Z,21.64
2023-05-08T22:43:28.061Z,21.65
2023-05-08T22:45:55.805Z,21.63
2023-05-08T22:48:24.999Z,21.65
2023-05-08T22:50:52.762Z,21.60
2023-05-08T22:53:19.783Z,21.56
2023-05-08T22:55:46.855Z,21.58
2023-05-08T22:58:13.866Z,21.56
2023-05-08T23:00:41.076Z,21.55
2023-05-08T23:03:08.070Z,21.55
2023-05-08T23:05:37.658Z,21.53
2023-05-08T23:08:04.904Z,21.48
2023-05-08T23:10:31.954Z,21.48
2023-05-08T23:12:59.179Z,21.31
2023-05-08T23:15:26.207Z,21.38
2023-05-08T23:17:53.216Z,21.35
2023-05-08T23:20:20.485Z,21.39
2023-05-08T23:22:47.372Z,21.35
2023-05-08T23:25:14.669Z,21.36
2023-05-08T23:27:44.853Z,21.35
2023-05-08T23:30:19.272Z,21.37
2023-05-08T23:32:46.545Z,21.34
2023-05-08T23:35:14.051Z,21.29
2023-05-08T23:37:41.281Z,21.29
2023-05-08T23:40:09.042Z,21.28
2023-05-08T23:42:37.259Z,21.28
2023-05-08T23:45:07.075Z,21.23
2023-05-08T23:47:34.112Z,21.25
2023-05-08T23:50:01.236Z,21.22
2023-05-08T23:52:28.218Z,21.23
2023-05-08T23:54:55.254Z,21.21
2023-05-08T23:57:25.774Z,21.20
2023-05-08T23:59:53.088Z,21.21
